Pagrindinis puslapis
METAR-TAF:

METAR-TAF

Oro uostai :

Bintulu, Malaizija

platuma: 03-12N, ilguma: 113-02E, Aukštis: 2 m

Dabartinis oras

Ataskaita buvo paskelbta 40 minutes, ne 18:00 UTC
Ramus vėjas
Temperatūra 25°C
Drėgmė 94%
Slėgis 1007 hPa
Matomumas 10 km arba daugiau
Mažai debesys ne aukštis 1600 ft

METAR: WBGB 301800Z 00000KT 9999 FEW016 25/24 Q1007

Laikas: 02:40 (18:40 UTC)

Prognozė

Ataskaita buvo paskelbta 1 valandą ir 40 minutes, ne 17:00 UTC
Prognozė galioja nuo 30 metu 18 UTC su 01 metu 18 UTC
Vėjas 3 kt iš Rytų/Pietryčių
Matomumas 10 km arba daugiau
Mažai debesys ne aukštis 1600 ft
Laikinai
nuo 01 metu 06 UTC su 01 metu 10 UTC
Vėjas 7 kt iš Šiaurės
Matomumas: 5000 m
Mažai debesys ne aukštis 1500 ft, Liūtiniai kamuoliniai debesys.
perkūnija, lietus

TAF: WBGB 301700Z 3018/0118 12003KT 9999 FEW016 TEMPO 0106/0110 36007KT 5000 TSRA FEW015CB

Orai ataskaitas ir orų prognozės (METAR, TAF).

turimą stotys yra geltonos ir raudonos taškus žemėlapyje.

Perkelti pele per norėdami pamatyti stoties vardą.

Tada spustelėkite, norėdami matyti oro stebėjimo ir prognozės.

Norėdami pakeisti žemėlapį: spustelėkite ant žalios mygtukų su juodo kryžiaus žemyn,; žalią mygtuką su brūkšneliu, jei norite nutolinti; arba žalių rodyklių gretimoms žemėlapius.


METAR-TAF: